Time;durP1;ratioP1;P1;durP2;ratioP2;P2;SDS_P1;SDS_P2;PMS_P1;PMS_P2;Temp;Humidity;BMP_temperature;BMP_pressure;BME280_temperature;BME280_humidity;BME280_pressure;Samples;Min_cycle;Max_cycle;Signal;HPM_P1;HPM_P2
2023/01/16 00:00:49;;;;;;;1999.90;999.90;;;;;;;1.47;100.00;94241.38;5070823;28;20172;-75
2023/01/16 00:03:15;;;;;;;1999.90;999.90;;;;;;;1.46;100.00;94235.22;5071042;28;20251;-74
2023/01/16 00:05:42;;;;;;;1999.90;999.90;;;;;;;1.45;100.00;94222.94;5070751;28;20175;-75
2023/01/16 00:08:07;;;;;;;1999.90;999.90;;;;;;;1.42;100.00;94226.34;5071165;28;20172;-75
2023/01/16 00:10:33;;;;;;;1999.90;999.90;;;;;;;1.42;100.00;94209.47;5071091;28;20200;-74
2023/01/16 00:12:58;;;;;;;1999.90;999.90;;;;;;;1.41;100.00;94199.84;5070534;28;20179;-74
2023/01/16 00:15:24;;;;;;;1999.90;999.90;;;;;;;1.41;100.00;94187.19;5070594;28;20164;-74
2023/01/16 00:17:49;;;;;;;1999.90;999.90;;;;;;;1.44;100.00;94188.34;5070535;28;20169;-75
2023/01/16 00:20:15;;;;;;;1999.90;999.90;;;;;;;1.39;100.00;94186.78;5070977;28;20238;-74
2023/01/16 00:22:41;;;;;;;1999.90;999.90;;;;;;;1.36;100.00;94182.16;5070930;28;20188;-75
2023/01/16 00:25:07;;;;;;;1999.90;999.90;;;;;;;1.35;100.00;94172.53;5070423;28;20179;-75
2023/01/16 00:27:32;;;;;;;1999.90;999.90;;;;;;;1.35;100.00;94163.72;5071232;28;20168;-74
2023/01/16 00:29:57;;;;;;;1999.90;999.90;;;;;;;1.35;100.00;94152.97;5070748;28;20169;-74
2023/01/16 00:32:23;;;;;;;1999.90;999.90;;;;;;;1.31;100.00;94147.53;5070750;28;20171;-74
2023/01/16 00:34:48;;;;;;;1999.90;999.90;;;;;;;1.30;100.00;94140.63;5070796;28;20175;-75
2023/01/16 00:37:13;;;;;;;1999.90;999.90;;;;;;;1.26;100.00;94139.84;5070571;28;20165;-74
2023/01/16 00:39:39;;;;;;;1999.90;999.90;;;;;;;1.25;100.00;94130.25;5070264;28;20167;-75
2023/01/16 00:42:06;;;;;;;1999.90;999.90;;;;;;;1.25;100.00;94132.94;5070883;28;20251;-75
2023/01/16 00:44:31;;;;;;;1999.90;999.90;;;;;;;1.27;100.00;94125.25;5070002;28;20165;-75
2023/01/16 00:46:56;;;;;;;1999.90;999.90;;;;;;;1.27;100.00;94121.81;5070234;28;20243;-75
2023/01/16 00:49:22;;;;;;;1999.90;999.90;;;;;;;1.22;100.00;94114.88;5069463;28;20269;-75
2023/01/16 00:51:47;;;;;;;1999.90;999.90;;;;;;;1.22;100.00;94106.78;5069595;28;20203;-74
2023/01/16 00:54:13;;;;;;;1999.90;999.90;;;;;;;1.18;100.00;94106.00;5070409;28;20245;-72
2023/01/16 00:56:38;;;;;;;1999.90;999.90;;;;;;;1.17;100.00;94096.38;5070035;28;20168;-74
2023/01/16 00:59:04;;;;;;;1999.90;999.90;;;;;;;1.19;100.00;94104.06;5069597;28;20198;-74
2023/01/16 01:01:29;;;;;;;1999.90;999.90;;;;;;;1.18;100.00;94094.47;5069629;28;20168;-74
2023/01/16 01:03:54;;;;;;;1999.90;999.90;;;;;;;1.17;100.00;94077.56;5069744;28;20160;-74
2023/01/16 01:06:20;;;;;;;1999.90;999.90;;;;;;;1.16;100.00;94070.66;5070226;28;20255;-73
2023/01/16 01:08:45;;;;;;;1999.90;999.90;;;;;;;1.16;100.00;94067.97;5070141;28;20185;-73
2023/01/16 01:11:13;;;;;;;1999.90;999.90;;;;;;;1.16;100.00;94059.16;5069404;28;20191;-74
2023/01/16 01:13:39;;;;;;;1999.90;999.90;;;;;;;1.15;100.00;94061.06;5069421;28;20183;-72
2023/01/16 01:16:06;;;;;;;1999.90;999.90;;;;;;;1.17;100.00;94056.06;5069457;28;20161;-73
2023/01/16 01:18:31;;;;;;;1999.90;999.90;;;;;;;1.17;100.00;94052.63;5069843;28;20176;-72
2023/01/16 01:20:56;;;;;;;1999.90;999.90;;;;;;;1.19;100.00;94050.31;5069224;28;20192;-73
2023/01/16 01:23:22;;;;;;;1999.90;999.90;;;;;;;1.22;100.00;94041.50;5069306;28;20186;-72
2023/01/16 01:25:47;;;;;;;1999.90;999.90;;;;;;;1.27;100.00;94033.84;5069479;28;20165;-73
2023/01/16 01:28:12;;;;;;;1999.90;999.90;;;;;;;1.26;100.00;94032.31;5069307;28;20164;-73
2023/01/16 01:30:38;;;;;;;1999.90;999.90;;;;;;;1.24;100.00;94039.97;5069296;28;20214;-75
2023/01/16 01:33:03;;;;;;;1999.90;999.90;;;;;;;1.28;100.00;94040.78;5069646;28;20168;-73
2023/01/16 01:35:29;;;;;;;1999.90;999.90;;;;;;;1.30;100.00;94038.47;5069117;28;20168;-74
2023/01/16 01:37:54;;;;;;;1999.90;999.90;;;;;;;1.34;100.00;94044.63;5068695;28;20157;-74
2023/01/16 01:40:19;;;;;;;1999.90;999.90;;;;;;;1.40;100.00;94037.75;5069009;28;20179;-74
2023/01/16 01:42:51;;;;;;;1999.90;999.90;;;;;;;1.42;100.00;94038.13;5069373;28;20164;-75
2023/01/16 01:45:31;;;;;;;1999.90;999.90;;;;;;;1.41;100.00;94036.59;5069485;28;20167;-75
2023/01/16 01:48:11;;;;;;;1999.90;999.90;;;;;;;1.39;100.00;94028.16;5068611;28;20213;-75
2023/01/16 01:50:56;;;;;;;1999.90;999.90;;;;;;;1.41;100.00;94033.91;5069166;28;20305;-76
2023/01/16 01:53:27;;;;;;;1999.90;999.90;;;;;;;1.41;100.00;94033.91;5069350;28;20248;-72
2023/01/16 01:55:56;;;;;;;1999.90;999.90;;;;;;;1.43;100.00;94026.25;5069245;28;20189;-75
2023/01/16 01:58:23;;;;;;;1999.90;999.90;;;;;;;1.47;100.00;94018.97;5068658;28;20179;-75
2023/01/16 02:00:56;;;;;;;1999.90;999.90;;;;;;;1.45;100.00;94010.50;5069297;28;20236;-75
2023/01/16 02:03:27;;;;;;;1999.90;999.90;;;;;;;1.39;100.00;94016.63;5069127;28;20195;-73
2023/01/16 02:05:57;;;;;;;1999.90;999.90;;;;;;;1.36;100.00;94020.84;5068509;28;20162;-75
2023/01/16 02:08:27;;;;;;;1999.90;999.90;;;;;;;1.32;100.00;94006.63;5068554;28;20487;-74
2023/01/16 02:11:00;;;;;;;1999.90;999.90;;;;;;;1.33;100.00;94002.00;5068219;28;20201;-73
2023/01/16 02:13:26;;;;;;;1999.90;999.90;;;;;;;1.32;100.00;94001.25;5068683;28;20169;-74
2023/01/16 02:21:34;;;;;;;1999.90;999.90;;;;;;;1.22;100.00;93969.72;5086122;28;20147;-74
2023/01/16 02:24:19;;;;;;;1999.90;999.90;;;;;;;1.26;100.00;93959.75;5068460;28;20175;-75
2023/01/16 02:27:00;;;;;;;1999.90;999.90;;;;;;;1.25;100.00;93941.31;5068153;28;20233;-75
2023/01/16 02:30:06;;;;;;;1999.90;999.90;;;;;;;1.24;100.00;93943.22;5068152;28;20169;-75
2023/01/16 02:32:52;;;;;;;1999.90;999.90;;;;;;;1.18;100.00;93934.00;5068771;28;20253;-74
2023/01/16 02:35:48;;;;;;;1999.90;999.90;;;;;;;1.11;100.00;93922.44;5068459;28;20181;-73
2023/01/16 02:38:26;;;;;;;1999.90;999.90;;;;;;;1.07;100.00;93919.75;5068436;28;20167;-74
2023/01/16 02:41:15;;;;;;;1999.90;999.90;;;;;;;1.07;100.00;93903.63;5068340;28;20170;-74
2023/01/16 02:44:08;;;;;;;1999.90;999.90;;;;;;;0.97;100.00;93885.56;5068111;28;20178;-76
2023/01/16 02:46:59;;;;;;;1999.90;999.90;;;;;;;0.97;100.00;93866.75;5068115;28;20179;-73
2023/01/16 02:49:43;;;;;;;1999.90;999.90;;;;;;;1.01;100.00;93858.69;5063082;28;20230;-75
2023/01/16 02:52:28;;;;;;;1999.90;999.90;;;;;;;1.00;100.00;93849.88;5068132;28;20435;-75
2023/01/16 02:55:03;;;;;;;1999.90;999.90;;;;;;;1.04;100.00;93839.91;5067558;28;20194;-75
2023/01/16 02:57:38;;;;;;;1999.90;999.90;;;;;;;1.02;100.00;93828.75;5068349;28;20250;-74
2023/01/16 03:00:06;;;;;;;1999.90;999.90;;;;;;;1.01;100.00;93816.47;5068145;28;20236;-75
2023/01/16 03:02:31;;;;;;;1999.90;999.90;;;;;;;1.03;100.00;93814.19;5067426;28;20176;-74
2023/01/16 03:04:57;;;;;;;1999.90;999.90;;;;;;;1.04;100.00;93810.34;5067346;28;20248;-74
2023/01/16 03:07:37;;;;;;;1999.90;999.90;;;;;;;1.06;100.00;93804.59;5067356;28;20169;-75
2023/01/16 03:10:08;;;;;;;1999.90;999.90;;;;;;;1.07;100.00;93809.56;5067711;28;20191;-76
2023/01/16 03:12:42;;;;;;;1999.90;999.90;;;;;;;1.14;100.00;93803.44;5067516;28;20173;-74
2023/01/16 03:15:27;;;;;;;1999.90;999.90;;;;;;;1.12;100.00;93793.06;5067821;28;20176;-74
2023/01/16 03:17:52;;;;;;;1999.90;999.90;;;;;;;1.12;100.00;93797.66;5067759;28;20209;-74
2023/01/16 03:20:17;;;;;;;1999.90;999.90;;;;;;;1.11;100.00;93802.28;5067121;28;20193;-74
2023/01/16 03:23:04;;;;;;;1999.90;999.90;;;;;;;1.11;100.00;93794.22;5066236;28;20282;-74
2023/01/16 03:25:41;;;;;;;1999.90;999.90;;;;;;;1.10;100.00;93792.69;5067788;28;20188;-74
2023/01/16 03:28:23;;;;;;;1999.90;999.90;;;;;;;1.06;100.00;93789.22;5067398;28;20176;-74
2023/01/16 03:30:52;;;;;;;1999.90;999.90;;;;;;;1.03;100.00;93787.31;5067266;28;20206;-73
2023/01/16 03:33:43;;;;;;;1999.90;999.90;;;;;;;0.97;100.00;93780.00;5067383;28;20182;-73
2023/01/16 03:36:21;;;;;;;1999.90;999.90;;;;;;;0.94;100.00;93772.72;5067574;28;20161;-74
2023/01/16 03:38:51;;;;;;;1999.90;999.90;;;;;;;0.95;100.00;93775.00;5067676;28;20466;-73
2023/01/16 03:41:21;;;;;;;1999.90;999.90;;;;;;;0.91;100.00;93760.78;5067166;28;20461;-73
2023/01/16 03:43:52;;;;;;;1999.90;999.90;;;;;;;0.93;100.00;93755.81;5066841;28;20189;-74
2023/01/16 03:46:24;;;;;;;1999.90;999.90;;;;;;;0.93;100.00;93746.97;5067411;28;20165;-74
2023/01/16 03:48:59;;;;;;;1999.90;999.90;;;;;;;0.88;100.00;93742.78;5066951;28;20231;-73
2023/01/16 03:51:28;;;;;;;1999.90;999.90;;;;;;;0.83;100.00;93728.97;5066933;28;20199;-75
2023/01/16 03:54:03;;;;;;;1999.90;999.90;;;;;;;0.82;100.00;93717.44;5066769;28;20173;-74
2023/01/16 03:56:52;;;;;;;1999.90;999.90;;;;;;;0.75;100.00;93712.06;5067384;28;20163;-74
2023/01/16 03:59:18;;;;;;;1999.90;999.90;;;;;;;0.65;100.00;93702.06;5066609;28;20210;-74
2023/01/16 04:01:54;;;;;;;1999.90;999.90;;;;;;;0.55;100.00;93686.72;5067228;28;20169;-75
2023/01/16 04:04:57;;;;;;;1999.90;999.90;;;;;;;0.51;100.00;93675.19;5067293;28;20411;-74
2023/01/16 04:07:29;;;;;;;1999.90;999.90;;;;;;;0.49;100.00;93660.63;5067112;28;20188;-75
2023/01/16 04:09:58;;;;;;;1999.90;999.90;;;;;;;0.44;100.00;93648.38;5066673;28;20194;-75
2023/01/16 04:12:30;;;;;;;1999.90;999.90;;;;;;;0.42;100.00;93650.66;5066534;28;20219;-74
2023/01/16 04:15:00;;;;;;;1999.90;999.90;;;;;;;0.38;100.00;93639.16;5067197;28;20352;-74
2023/01/16 04:17:26;;;;;;;1999.90;999.90;;;;;;;0.36;100.00;93621.91;5067091;28;20210;-73
2023/01/16 04:19:52;;;;;;;1999.90;999.90;;;;;;;0.35;100.00;93604.25;5066889;28;20202;-74
2023/01/16 04:22:23;;;;;;;1999.90;999.90;;;;;;;0.36;100.00;93587.00;5067144;28;20172;-74
2023/01/16 04:24:51;;;;;;;1999.90;999.90;;;;;;;0.37;100.00;93572.44;5066730;28;20460;-75
2023/01/16 04:27:18;;;;;;;1999.90;999.90;;;;;;;0.38;100.00;93564.00;5066987;28;20168;-73
2023/01/16 04:29:43;;;;;;;1999.90;999.90;;;;;;;0.35;100.00;93553.25;5066521;28;20165;-74
2023/01/16 04:32:09;;;;;;;1999.90;999.90;;;;;;;0.34;100.00;93531.03;5066440;28;20203;-74
2023/01/16 04:34:34;;;;;;;1999.90;999.90;;;;;;;0.32;100.00;93521.84;5069508;28;20209;-74
2023/01/16 04:36:59;;;;;;;1999.90;999.90;;;;;;;0.30;100.00;93519.53;5070645;28;20189;-74
2023/01/16 04:39:25;;;;;;;1999.90;999.90;;;;;;;0.29;100.00;93507.25;5070355;28;20292;-75
2023/01/16 04:41:50;;;;;;;1999.90;999.90;;;;;;;0.21;100.00;93484.25;5070274;28;20198;-74
2023/01/16 04:44:17;;;;;;;1999.90;999.90;;;;;;;0.19;100.00;93458.97;5070685;28;20172;-73
2023/01/16 04:46:42;;;;;;;1999.90;999.90;;;;;;;0.18;100.00;93446.72;5070396;28;20183;-73
2023/01/16 04:49:08;;;;;;;1999.90;999.90;;;;;;;0.15;100.00;93420.66;5069908;28;20284;-73
2023/01/16 04:51:35;;;;;;;1999.90;999.90;;;;;;;0.14;100.00;93376.19;5069770;28;20206;-73
2023/01/16 04:54:01;;;;;;;1999.90;999.90;;;;;;;0.15;100.00;93354.34;5069922;28;20191;-73
2023/01/16 04:56:27;;;;;;;1999.90;999.90;;;;;;;0.13;100.00;93334.41;5069584;28;20168;-74
2023/01/16 04:58:53;;;;;;;1999.90;999.90;;;;;;;0.07;100.00;93312.59;5070184;28;20173;-75
2023/01/16 05:01:18;;;;;;;1999.90;999.90;;;;;;;0.07;100.00;93295.75;5070138;28;20167;-74
2023/01/16 05:03:44;;;;;;;1999.90;999.90;;;;;;;0.05;100.00;93282.72;5070182;28;20321;-73
2023/01/16 05:06:09;;;;;;;1999.90;999.90;;;;;;;0.05;100.00;93274.66;5069645;28;20168;-72
2023/01/16 05:08:34;;;;;;;1999.90;999.90;;;;;;;0.04;100.00;93259.75;5069574;28;20193;-72
2023/01/16 05:11:01;;;;;;;1999.90;999.90;;;;;;;0.03;100.00;93247.47;5069411;28;20209;-73
2023/01/16 05:13:27;;;;;;;1999.90;999.90;;;;;;;-0.01;100.00;93244.81;5069455;28;20177;-73
2023/01/16 05:15:53;;;;;;;1999.90;999.90;;;;;;;-0.02;100.00;93235.25;5069357;28;20166;-73
2023/01/16 05:18:18;;;;;;;1999.90;999.90;;;;;;;-0.02;100.00;93229.09;5069373;28;20186;-72
2023/01/16 05:20:44;;;;;;;1999.90;999.90;;;;;;;-0.05;100.00;93217.25;5069330;28;20206;-69
2023/01/16 05:23:10;;;;;;;1999.90;999.90;;;;;;;-0.06;100.00;93213.00;5069573;28;20189;-69
2023/01/16 05:25:36;;;;;;;1999.90;999.90;;;;;;;-0.06;100.00;93206.91;5069761;28;20167;-71
2023/01/16 05:28:02;;;;;;;1999.90;999.90;;;;;;;-0.09;100.00;93199.63;5069159;28;20175;-70
2023/01/16 05:30:27;;;;;;;1999.90;999.90;;;;;;;-0.09;100.00;93189.69;5069059;28;20202;-71
2023/01/16 05:32:53;;;;;;;1999.90;999.90;;;;;;;-0.11;100.00;93178.56;5069635;28;20205;-72
2023/01/16 05:35:19;;;;;;;1999.90;999.90;;;;;;;-0.13;100.00;93172.06;5069536;28;20171;-72
2023/01/16 05:37:45;;;;;;;1999.90;999.90;;;;;;;-0.11;100.00;93167.06;5069659;28;20171;-72
2023/01/16 05:40:11;;;;;;;1999.90;999.90;;;;;;;-0.10;100.00;93169.34;5069781;28;20176;-69
2023/01/16 05:42:37;;;;;;;1999.90;999.90;;;;;;;-0.10;100.00;93150.59;5069368;28;20194;-69
2023/01/16 05:45:03;;;;;;;1999.90;999.90;;;;;;;-0.11;100.00;93138.34;5067801;28;20177;-71
2023/01/16 05:47:28;;;;;;;1999.90;999.90;;;;;;;-0.13;100.00;93124.56;5068681;28;20198;-70
2023/01/16 05:49:57;;;;;;;1999.90;999.90;;;;;;;-0.12;100.00;93117.28;5068351;28;20221;-70
2023/01/16 05:52:23;;;;;;;1999.90;999.90;;;;;;;-0.13;100.00;93121.13;5068654;28;20200;-70
2023/01/16 05:54:48;;;;;;;1999.90;999.90;;;;;;;-0.14;100.00;93114.25;5068754;28;20204;-70
2023/01/16 05:57:14;;;;;;;1999.90;999.90;;;;;;;-0.12;100.00;93109.25;5068714;28;20507;-70
2023/01/16 05:59:41;;;;;;;1999.90;999.90;;;;;;;-0.13;100.00;93105.03;5068709;28;20165;-71
2023/01/16 06:02:06;;;;;;;1999.90;999.90;;;;;;;-0.13;100.00;93111.16;5069038;28;20171;-70
2023/01/16 06:04:32;;;;;;;1999.90;999.90;;;;;;;-0.15;100.00;93101.97;5068916;28;20173;-70
2023/01/16 06:06:57;;;;;;;1999.90;999.90;;;;;;;-0.16;100.00;93100.44;5068273;28;20229;-73
2023/01/16 06:09:22;;;;;;;1999.90;999.90;;;;;;;-0.19;100.00;93096.66;5068298;28;20192;-74
2023/01/16 06:11:48;;;;;;;1999.90;999.90;;;;;;;-0.22;100.00;93093.97;5068231;28;20269;-74
2023/01/16 06:14:13;;;;;;;1999.90;999.90;;;;;;;-0.23;100.00;93084.41;5068480;28;20189;-74
2023/01/16 06:16:39;;;;;;;1999.90;999.90;;;;;;;-0.25;100.00;93081.38;5068124;28;20165;-73
2023/01/16 06:19:04;;;;;;;1999.90;999.90;;;;;;;-0.30;100.00;93068.34;5067925;28;20254;-73
2023/01/16 06:21:29;;;;;;;1999.90;999.90;;;;;;;-0.34;100.00;93067.63;5068128;28;20167;-73
2023/01/16 06:23:55;;;;;;;1999.90;999.90;;;;;;;-0.35;100.00;93044.66;5067953;28;20401;-72
2023/01/16 06:26:20;;;;;;;1999.90;999.90;;;;;;;-0.36;100.00;93024.38;5067934;28;20162;-72
2023/01/16 06:28:46;;;;;;;1999.90;999.90;;;;;;;-0.32;100.00;93011.72;5067946;28;20158;-71
2023/01/16 06:31:11;;;;;;;1999.90;999.90;;;;;;;-0.30;100.00;92987.94;5068323;28;20197;-71
2023/01/16 06:33:37;;;;;;;1999.90;999.90;;;;;;;-0.25;100.00;92968.78;5067671;28;20175;-71
2023/01/16 06:36:03;;;;;;;1999.90;999.90;;;;;;;-0.22;100.00;92965.28;5068185;28;20166;-72
2023/01/16 06:38:29;;;;;;;1999.90;999.90;;;;;;;-0.21;100.00;92953.44;5067942;28;20167;-72
2023/01/16 06:40:55;;;;;;;1999.90;999.90;;;;;;;-0.19;100.00;92945.72;5068007;28;20197;-72
2023/01/16 06:43:25;;;;;;;1999.90;999.90;;;;;;;-0.18;100.00;92941.91;5068143;28;20166;-72
2023/01/16 06:45:51;;;;;;;1999.90;999.90;;;;;;;-0.17;100.00;92932.72;5067980;28;20234;-71
2023/01/16 06:48:17;;;;;;;1999.90;999.90;;;;;;;-0.16;100.00;92923.50;5067541;28;20221;-71
2023/01/16 06:50:42;;;;;;;1999.90;999.90;;;;;;;-0.15;100.00;92914.28;5067317;28;20239;-73
2023/01/16 06:53:08;;;;;;;1999.90;999.90;;;;;;;-0.18;100.00;92909.75;5067906;28;20167;-71
2023/01/16 06:55:33;;;;;;;1999.90;999.90;;;;;;;-0.19;100.00;92900.16;5067279;28;20161;-70
2023/01/16 06:57:59;;;;;;;1999.90;999.90;;;;;;;-0.21;100.00;92895.19;5067885;28;20166;-71
2023/01/16 07:00:24;;;;;;;1999.90;999.90;;;;;;;-0.20;100.00;92882.56;5067283;28;20426;-71
2023/01/16 07:02:56;;;;;;;1999.90;999.90;;;;;;;-0.20;100.00;92869.16;5067890;28;20162;-72
2023/01/16 07:05:25;;;;;;;1999.90;999.90;;;;;;;-0.17;100.00;92868.38;5067715;28;20172;-72
2023/01/16 07:07:51;;;;;;;1999.90;999.90;;;;;;;0.07;100.00;92851.25;5067449;28;20211;-74
2023/01/16 07:10:17;;;;;;;1999.90;999.90;;;;;;;0.45;100.00;92844.69;5067333;28;20166;-73
2023/01/16 07:12:43;;;;;;;1999.90;999.90;;;;;;;0.82;100.00;92836.53;5066886;28;20222;-74
2023/01/16 07:23:33;;;;;;;1999.90;999.90;;;;;;;3.38;100.00;93083.38;5084799;28;20199;-72
2023/01/16 07:26:02;;;;;;;1999.90;999.90;;;;;;;4.11;100.00;93187.59;5067496;28;20173;-72
2023/01/16 07:28:28;;;;;;;1999.90;999.90;;;;;;;4.48;100.00;93270.97;5066880;28;20169;-72
2023/01/16 07:30:55;;;;;;;1999.90;999.90;;;;;;;4.96;100.00;93314.38;5066950;28;20246;-71
2023/01/16 07:33:20;;;;;;;1999.90;999.90;;;;;;;5.15;100.00;93357.63;5067074;28;20442;-73
2023/01/16 07:35:45;;;;;;;1999.90;999.90;;;;;;;5.29;100.00;93378.22;5067141;28;20158;-73
2023/01/16 07:38:11;;;;;;;1999.90;999.90;;;;;;;5.48;100.00;93388.22;5067446;28;20350;-75
2023/01/16 07:40:36;;;;;;;1999.90;999.90;;;;;;;5.35;100.00;93384.66;5067385;28;20162;-73
2023/01/16 07:43:02;;;;;;;1999.90;999.90;;;;;;;5.49;100.00;93373.50;5066827;28;20220;-70
2023/01/16 07:45:27;;;;;;;1999.90;999.90;;;;;;;5.43;100.00;93375.22;5066966;28;20256;-73
2023/01/16 07:47:53;;;;;;;1999.90;999.90;;;;;;;5.81;100.00;93373.59;5066694;28;20169;-72
2023/01/16 07:50:18;;;;;;;1999.90;999.90;;;;;;;6.18;100.00;93362.25;5066947;28;20404;-71
2023/01/16 07:52:44;;;;;;;1999.90;999.90;;;;;;;6.15;100.00;93354.97;5067335;28;20176;-73
2023/01/16 07:55:09;;;;;;;1999.90;999.90;;;;;;;6.57;100.00;93353.88;5066797;28;20180;-75
2023/01/16 07:57:36;;;;;;;1999.90;999.90;;;;;;;6.51;100.00;93352.88;5066892;28;20176;-75
2023/01/16 08:00:04;;;;;;;1999.90;999.90;;;;;;;6.15;100.00;93346.84;5066530;28;20177;-74
2023/01/16 08:02:30;;;;;;;1999.90;999.90;;;;;;;6.96;100.00;93342.75;5066707;28;20205;-74
2023/01/16 08:04:55;;;;;;;1999.90;999.90;;;;;;;6.89;100.00;93334.81;5066703;28;20169;-74
2023/01/16 08:07:21;;;;;;;1999.90;999.90;;;;;;;7.29;100.00;93330.56;5066687;28;20176;-73
2023/01/16 08:09:46;;;;;;;1999.90;999.90;;;;;;;7.04;100.00;93332.44;5070446;28;20174;-73
2023/01/16 08:12:11;;;;;;;1999.90;999.90;;;;;;;7.13;100.00;93319.03;5071024;28;20205;-73
2023/01/16 08:14:38;;;;;;;1999.90;999.90;;;;;;;7.78;100.00;93314.69;5070496;28;20169;-73
2023/01/16 08:17:04;;;;;;;1999.90;999.90;;;;;;;7.29;100.00;93310.78;5071340;28;20374;-74
2023/01/16 08:19:29;;;;;;;1999.90;999.90;;;;;;;7.43;100.00;93313.81;5070438;28;20240;-71
2023/01/16 08:21:55;;;;;;;1999.90;999.90;;;;;;;7.49;100.00;93305.88;5070296;28;20170;-74
2023/01/16 08:24:20;;;;;;;1999.90;999.90;;;;;;;7.20;100.00;93311.41;5070914;28;20169;-70
2023/01/16 08:26:45;;;;;;;1999.90;999.90;;;;;;;7.34;100.00;93302.84;5070809;28;20194;-70
2023/01/16 08:29:10;;;;;;;1999.90;999.90;;;;;;;7.44;100.00;93299.06;5070529;28;20179;-70
2023/01/16 08:31:36;;;;;;;1999.90;999.90;;;;;;;7.47;100.00;93294.72;5070708;28;20204;-70
2023/01/16 08:34:01;;;;;;;1999.90;999.90;;;;;;;7.09;100.00;93281.13;5070062;28;20169;-70
2023/01/16 08:36:27;;;;;;;1999.90;999.90;;;;;;;7.28;100.00;93276.69;5070162;28;20171;-71
2023/01/16 08:38:52;;;;;;;1999.90;999.90;;;;;;;6.80;100.00;93269.56;5070275;28;20173;-70
2023/01/16 08:52:33;;;;;;;1999.90;999.90;;;;;;;7.25;100.00;93224.00;5087606;28;20213;-70
2023/01/16 08:54:59;;;;;;;1999.90;999.90;;;;;;;7.41;100.00;93215.78;5069849;28;20174;-71
2023/01/16 08:57:27;;;;;;;1999.90;999.90;;;;;;;7.00;100.00;93210.47;5070301;28;20201;-71
2023/01/16 08:59:53;;;;;;;1999.90;999.90;;;;;;;6.67;100.00;93211.84;5070258;28;20357;-70
2023/01/16 09:02:19;;;;;;;1999.90;999.90;;;;;;;6.63;100.00;93195.66;5070161;28;20251;-70
2023/01/16 09:04:45;;;;;;;1999.90;999.90;;;;;;;7.69;100.00;93193.13;5069554;28;20354;-70
2023/01/16 09:07:10;;;;;;;1999.90;999.90;;;;;;;7.28;100.00;93193.28;5069724;28;20196;-70
2023/01/16 09:09:35;;;;;;;1999.90;999.90;;;;;;;7.49;100.00;93189.91;5069607;28;20169;-70
2023/01/16 09:14:45;;;;;;;1999.90;999.90;;;;;;;7.96;100.00;93173.59;5087195;28;20199;-72
2023/01/16 09:17:11;;;;;;;1999.90;999.90;;;;;;;7.86;100.00;93169.28;5069804;28;20170;-71
2023/01/16 09:19:36;;;;;;;1999.90;999.90;;;;;;;7.88;100.00;93158.72;5069739;28;20251;-72
2023/01/16 09:22:05;;;;;;;1999.90;999.90;;;;;;;8.52;100.00;93166.91;5069253;28;20171;-71
2023/01/16 09:24:31;;;;;;;1999.90;999.90;;;;;;;8.53;100.00;93160.28;5069349;28;20228;-72
2023/01/16 09:26:56;;;;;;;1999.90;999.90;;;;;;;7.78;100.00;93147.03;5069550;28;20175;-73
2023/01/16 09:29:22;;;;;;;1999.90;999.90;;;;;;;8.43;100.00;93145.13;5069182;28;20183;-73
2023/01/16 09:31:47;;;;;;;1999.90;999.90;;;;;;;8.28;100.00;93146.84;5069505;28;20203;-74
2023/01/16 09:34:12;;;;;;;1999.90;999.90;;;;;;;8.03;100.00;93141.50;5069688;28;20176;-73
2023/01/16 09:36:38;;;;;;;1999.90;999.90;;;;;;;7.94;100.00;93133.25;5069051;28;20238;-73
2023/01/16 09:39:03;;;;;;;1999.90;999.90;;;;;;;8.03;100.00;93133.34;5069145;28;20373;-73
2023/01/16 09:44:20;;;;;;;1999.90;999.90;;;;;;;7.31;100.00;93116.41;5086699;28;20191;-73
2023/01/16 09:46:50;;;;;;;1999.90;999.90;;;;;;;7.65;100.00;93105.56;5068603;28;20237;-73
2023/01/16 09:49:23;;;;;;;1999.90;999.90;;;;;;;8.02;100.00;93091.06;5064947;28;20205;-71
2023/01/16 10:00:19;;;;;;;1999.90;999.90;;;;;;;6.06;100.00;93067.66;5066456;28;20153;-72
2023/01/16 10:02:45;;;;;;;1999.90;999.90;;;;;;;5.98;100.00;93047.41;5065740;28;20161;-72
2023/01/16 10:05:13;;;;;;;1999.90;999.90;;;;;;;5.50;100.00;93040.19;5065387;28;20176;-72
2023/01/16 10:07:38;;;;;;;1999.90;999.90;;;;;;;5.42;100.00;93027.28;5066002;28;20172;-72
2023/01/16 10:10:19;;;;;;;1999.90;999.90;;;;;;;5.49;100.00;93016.28;5065193;28;20167;-72
2023/01/16 10:13:26;;;;;;;1999.90;999.90;;;;;;;5.60;100.00;93011.31;5065502;28;20176;-71
2023/01/16 10:16:31;;;;;;;1999.90;999.90;;;;;;;5.12;100.00;92997.97;5052194;28;20187;-71
2023/01/16 10:19:32;;;;;;;1999.90;999.90;;;;;;;5.43;100.00;92980.13;5064691;28;20160;-72
2023/01/16 10:22:13;;;;;;;1999.90;999.90;;;;;;;4.94;100.00;92965.22;5043687;28;20183;-72
2023/01/16 10:25:11;;;;;;;1999.90;999.90;;;;;;;4.84;100.00;92963.59;5065412;28;20159;-72
2023/01/16 10:27:55;;;;;;;1999.90;999.90;;;;;;;4.68;100.00;92953.56;5065644;28;20363;-70
2023/01/16 10:30:29;;;;;;;1999.90;999.90;;;;;;;5.22;100.00;92937.44;5065217;28;20182;-67
2023/01/16 10:33:15;;;;;;;1999.90;999.90;;;;;;;6.01;100.00;92935.50;5065103;28;20160;-69
2023/01/16 10:35:44;;;;;;;1999.90;999.90;;;;;;;6.30;100.00;92927.94;5065016;28;20183;-68
2023/01/16 10:38:32;;;;;;;1999.90;999.90;;;;;;;6.36;100.00;92934.34;5064542;28;20200;-70
2023/01/16 10:40:58;;;;;;;1999.90;999.90;;;;;;;6.24;100.00;92929.72;5064879;28;20160;-71
2023/01/16 10:49:27;;;;;;;1999.90;999.90;;;;;;;6.14;100.00;92909.13;5077390;28;20316;-70
2023/01/16 10:51:53;;;;;;;1999.90;999.90;;;;;;;6.07;100.00;92898.53;5067991;28;20206;-70
2023/01/16 10:54:19;;;;;;;1999.90;999.90;;;;;;;6.24;100.00;92897.19;5068052;28;20164;-68
2023/01/16 10:56:44;;;;;;;1999.90;999.90;;;;;;;5.91;100.00;92887.81;5067710;28;20196;-68
2023/01/16 10:59:14;;;;;;;1999.90;999.90;;;;;;;5.56;100.00;92880.75;5067457;28;20202;-70
2023/01/16 11:01:41;;;;;;;1999.90;999.90;;;;;;;5.53;100.00;92882.38;5067353;28;20163;-68
2023/01/16 11:04:11;;;;;;;1999.90;999.90;;;;;;;5.49;100.00;92868.19;5067942;28;20168;-69
2023/01/16 11:06:40;;;;;;;1999.90;999.90;;;;;;;5.14;100.00;92865.78;5068051;28;20167;-69
2023/01/16 11:09:17;;;;;;;1999.90;999.90;;;;;;;5.02;100.00;92863.81;5068126;28;20411;-69
2023/01/16 11:20:13;;;;;;;1999.90;999.90;;;;;;;5.19;100.00;92835.50;5084881;28;20229;-69
2023/01/16 11:22:39;;;;;;;1999.90;999.90;;;;;;;5.17;100.00;92835.19;5067622;28;20165;-69
2023/01/16 11:25:06;;;;;;;1999.90;999.90;;;;;;;5.30;100.00;92825.13;5067643;28;20223;-70
2023/01/16 11:27:35;;;;;;;1999.90;999.90;;;;;;;5.27;100.00;92820.56;5066886;28;20167;-69
2023/01/16 11:30:06;;;;;;;1999.90;999.90;;;;;;;5.34;100.00;92813.00;5067029;28;20177;-72
2023/01/16 11:32:37;;;;;;;1999.90;999.90;;;;;;;5.45;100.00;92796.44;5067454;28;20238;-68
2023/01/16 11:35:11;;;;;;;1999.90;999.90;;;;;;;5.27;100.00;92801.63;5067531;28;20213;-68
2023/01/16 11:37:37;;;;;;;1999.90;999.90;;;;;;;5.04;100.00;92791.13;5067003;28;20159;-67
2023/01/16 11:40:04;;;;;;;1999.90;999.90;;;;;;;5.22;100.00;92775.13;5067182;28;20178;-67
2023/01/16 11:48:22;;;;;;;1999.90;999.90;;;;;;;5.07;100.00;92757.81;5088648;28;20227;-68
2023/01/16 11:50:58;;;;;;;1999.90;999.90;;;;;;;5.27;100.00;92750.22;5071666;28;20261;-69
2023/01/16 11:53:32;;;;;;;1999.90;999.90;;;;;;;5.53;100.00;92740.88;5071105;28;20187;-69
2023/01/16 11:56:15;;;;;;;1999.90;999.90;;;;;;;5.68;100.00;92739.25;5071310;28;20180;-71
2023/01/16 11:59:08;;;;;;;1999.90;999.90;;;;;;;5.64;100.00;92714.22;5071714;28;20447;-69
2023/01/16 12:04:29;;;;;;;1999.90;999.90;;;;;;;5.81;100.00;92707.50;5088286;28;20170;-70